sensor_id;sensor_type;location;lat;lon;timestamp;P1;durP1;ratioP1;P2;durP2;ratioP2
417;SDS011;49;48.530;9.200;2023-08-06T00:01:33;4.97;;;3.70;;
417;SDS011;49;48.530;9.200;2023-08-06T00:04:00;7.20;;;4.00;;
417;SDS011;49;48.530;9.200;2023-08-06T00:06:28;4.97;;;3.63;;
417;SDS011;49;48.530;9.200;2023-08-06T00:08:55;5.83;;;3.80;;
417;SDS011;49;48.530;9.200;2023-08-06T00:11:22;4.47;;;4.17;;
417;SDS011;49;48.530;9.200;2023-08-06T00:13:49;4.87;;;3.77;;
417;SDS011;49;48.530;9.200;2023-08-06T00:16:19;5.10;;;4.30;;
417;SDS011;49;48.530;9.200;2023-08-06T00:18:48;6.20;;;3.97;;
417;SDS011;49;48.530;9.200;2023-08-06T00:21:17;4.60;;;3.90;;
417;SDS011;49;48.530;9.200;2023-08-06T00:23:45;4.63;;;3.87;;
417;SDS011;49;48.530;9.200;2023-08-06T00:26:12;8.43;;;4.17;;
417;SDS011;49;48.530;9.200;2023-08-06T00:28:39;5.83;;;4.00;;
417;SDS011;49;48.530;9.200;2023-08-06T00:31:06;5.70;;;4.03;;
417;SDS011;49;48.530;9.200;2023-08-06T00:33:33;11.00;;;4.40;;
417;SDS011;49;48.530;9.200;2023-08-06T00:36:04;5.33;;;4.30;;
417;SDS011;49;48.530;9.200;2023-08-06T00:38:31;5.90;;;3.83;;
417;SDS011;49;48.530;9.200;2023-08-06T00:40:58;4.90;;;4.13;;
417;SDS011;49;48.530;9.200;2023-08-06T00:43:26;5.40;;;3.90;;
417;SDS011;49;48.530;9.200;2023-08-06T00:45:53;5.60;;;3.67;;
417;SDS011;49;48.530;9.200;2023-08-06T00:48:22;7.33;;;3.97;;
417;SDS011;49;48.530;9.200;2023-08-06T00:50:49;4.20;;;3.50;;
417;SDS011;49;48.530;9.200;2023-08-06T00:53:17;4.47;;;3.73;;
417;SDS011;49;48.530;9.200;2023-08-06T00:55:45;4.10;;;3.40;;
417;SDS011;49;48.530;9.200;2023-08-06T00:58:12;5.33;;;3.30;;
417;SDS011;49;48.530;9.200;2023-08-06T01:00:40;4.77;;;3.80;;
417;SDS011;49;48.530;9.200;2023-08-06T01:03:07;5.23;;;3.63;;
417;SDS011;49;48.530;9.200;2023-08-06T01:05:34;6.47;;;3.40;;
417;SDS011;49;48.530;9.200;2023-08-06T01:08:11;7.33;;;3.70;;
417;SDS011;49;48.530;9.200;2023-08-06T01:10:49;6.83;;;3.77;;
417;SDS011;49;48.530;9.200;2023-08-06T01:13:28;6.37;;;4.03;;
417;SDS011;49;48.530;9.200;2023-08-06T01:16:06;16.17;;;4.40;;
417;SDS011;49;48.530;9.200;2023-08-06T01:18:46;5.83;;;3.77;;
417;SDS011;49;48.530;9.200;2023-08-06T01:21:18;7.77;;;4.37;;
417;SDS011;49;48.530;9.200;2023-08-06T01:23:51;4.17;;;3.50;;
417;SDS011;49;48.530;9.200;2023-08-06T01:26:21;3.93;;;3.33;;
417;SDS011;49;48.530;9.200;2023-08-06T01:28:56;6.63;;;4.90;;
417;SDS011;49;48.530;9.200;2023-08-06T01:31:27;10.60;;;4.63;;
417;SDS011;49;48.530;9.200;2023-08-06T01:33:59;6.80;;;3.37;;
417;SDS011;49;48.530;9.200;2023-08-06T01:36:31;4.13;;;3.10;;
417;SDS011;49;48.530;9.200;2023-08-06T01:39:05;5.50;;;3.33;;
417;SDS011;49;48.530;9.200;2023-08-06T01:41:32;7.17;;;3.33;;
417;SDS011;49;48.530;9.200;2023-08-06T01:43:59;4.50;;;3.03;;
417;SDS011;49;48.530;9.200;2023-08-06T01:46:26;4.30;;;3.33;;
417;SDS011;49;48.530;9.200;2023-08-06T01:48:54;4.40;;;3.30;;
417;SDS011;49;48.530;9.200;2023-08-06T01:51:21;7.97;;;4.20;;
417;SDS011;49;48.530;9.200;2023-08-06T01:53:49;7.77;;;3.53;;
417;SDS011;49;48.530;9.200;2023-08-06T01:56:18;6.20;;;2.90;;
417;SDS011;49;48.530;9.200;2023-08-06T01:58:45;4.17;;;3.03;;
417;SDS011;49;48.530;9.200;2023-08-06T02:01:12;8.60;;;3.17;;
417;SDS011;49;48.530;9.200;2023-08-06T02:03:39;4.10;;;3.07;;
417;SDS011;49;48.530;9.200;2023-08-06T02:06:06;8.03;;;3.40;;
417;SDS011;49;48.530;9.200;2023-08-06T02:08:33;4.90;;;3.00;;
417;SDS011;49;48.530;9.200;2023-08-06T02:11:02;7.70;;;3.43;;
417;SDS011;49;48.530;9.200;2023-08-06T02:13:29;6.10;;;2.93;;
417;SDS011;49;48.530;9.200;2023-08-06T02:15:56;5.93;;;3.30;;
417;SDS011;49;48.530;9.200;2023-08-06T02:18:26;5.93;;;3.30;;
417;SDS011;49;48.530;9.200;2023-08-06T02:20:59;20.07;;;3.30;;
417;SDS011;49;48.530;9.200;2023-08-06T02:23:26;8.47;;;3.73;;
417;SDS011;49;48.530;9.200;2023-08-06T02:25:57;4.10;;;2.90;;
417;SDS011;49;48.530;9.200;2023-08-06T02:28:29;5.23;;;3.87;;
417;SDS011;49;48.530;9.200;2023-08-06T02:30:56;9.67;;;3.60;;
417;SDS011;49;48.530;9.200;2023-08-06T02:33:26;7.67;;;3.30;;
417;SDS011;49;48.530;9.200;2023-08-06T02:36:01;7.73;;;3.70;;
417;SDS011;49;48.530;9.200;2023-08-06T02:38:29;4.93;;;3.67;;
417;SDS011;49;48.530;9.200;2023-08-06T02:40:57;8.33;;;4.00;;
417;SDS011;49;48.530;9.200;2023-08-06T02:43:24;12.47;;;3.80;;
417;SDS011;49;48.530;9.200;2023-08-06T02:45:56;6.27;;;3.40;;
417;SDS011;49;48.530;9.200;2023-08-06T02:48:23;5.80;;;3.70;;
417;SDS011;49;48.530;9.200;2023-08-06T02:50:50;9.63;;;3.60;;
417;SDS011;49;48.530;9.200;2023-08-06T02:53:18;9.53;;;4.00;;
417;SDS011;49;48.530;9.200;2023-08-06T02:55:47;6.73;;;3.80;;
417;SDS011;49;48.530;9.200;2023-08-06T02:58:17;5.30;;;3.70;;
417;SDS011;49;48.530;9.200;2023-08-06T03:00:47;5.60;;;3.37;;
417;SDS011;49;48.530;9.200;2023-08-06T03:03:28;6.30;;;3.90;;
417;SDS011;49;48.530;9.200;2023-08-06T03:05:55;13.57;;;3.80;;
417;SDS011;49;48.530;9.200;2023-08-06T03:08:22;7.70;;;3.57;;
417;SDS011;49;48.530;9.200;2023-08-06T03:10:49;6.77;;;3.70;;
417;SDS011;49;48.530;9.200;2023-08-06T03:13:16;10.93;;;4.13;;
417;SDS011;49;48.530;9.200;2023-08-06T03:15:43;8.67;;;3.60;;
417;SDS011;49;48.530;9.200;2023-08-06T03:18:19;5.17;;;3.67;;
417;SDS011;49;48.530;9.200;2023-08-06T03:20:47;16.30;;;3.53;;
417;SDS011;49;48.530;9.200;2023-08-06T03:23:14;7.33;;;3.37;;
417;SDS011;49;48.530;9.200;2023-08-06T03:25:41;6.17;;;3.30;;
417;SDS011;49;48.530;9.200;2023-08-06T03:28:08;7.23;;;3.37;;
417;SDS011;49;48.530;9.200;2023-08-06T03:30:35;6.10;;;3.90;;
417;SDS011;49;48.530;9.200;2023-08-06T03:33:03;8.70;;;3.43;;
417;SDS011;49;48.530;9.200;2023-08-06T03:35:31;8.67;;;3.60;;
417;SDS011;49;48.530;9.200;2023-08-06T03:37:58;5.13;;;3.50;;
417;SDS011;49;48.530;9.200;2023-08-06T03:40:25;7.33;;;4.27;;
417;SDS011;49;48.530;9.200;2023-08-06T03:42:52;10.90;;;3.60;;
417;SDS011;49;48.530;9.200;2023-08-06T03:45:19;5.60;;;3.43;;
417;SDS011;49;48.530;9.200;2023-08-06T03:47:46;6.27;;;3.33;;
417;SDS011;49;48.530;9.200;2023-08-06T03:50:13;8.20;;;3.53;;
417;SDS011;49;48.530;9.200;2023-08-06T03:52:42;4.67;;;3.33;;
417;SDS011;49;48.530;9.200;2023-08-06T03:55:09;4.60;;;3.10;;
417;SDS011;49;48.530;9.200;2023-08-06T03:57:36;7.27;;;3.30;;
417;SDS011;49;48.530;9.200;2023-08-06T04:00:03;4.80;;;3.03;;
417;SDS011;49;48.530;9.200;2023-08-06T04:02:30;6.13;;;3.20;;
417;SDS011;49;48.530;9.200;2023-08-06T04:04:57;4.70;;;3.10;;
417;SDS011;49;48.530;9.200;2023-08-06T04:07:25;4.97;;;3.30;;
417;SDS011;49;48.530;9.200;2023-08-06T04:09:54;9.93;;;4.20;;
417;SDS011;49;48.530;9.200;2023-08-06T04:12:23;6.33;;;3.47;;
417;SDS011;49;48.530;9.200;2023-08-06T04:14:50;8.07;;;3.00;;
417;SDS011;49;48.530;9.200;2023-08-06T04:17:20;10.90;;;3.27;;
417;SDS011;49;48.530;9.200;2023-08-06T04:19:49;7.93;;;3.17;;
417;SDS011;49;48.530;9.200;2023-08-06T04:22:17;7.40;;;2.67;;
417;SDS011;49;48.530;9.200;2023-08-06T04:24:45;7.17;;;2.53;;
417;SDS011;49;48.530;9.200;2023-08-06T04:27:14;7.10;;;2.40;;
417;SDS011;49;48.530;9.200;2023-08-06T04:29:43;11.83;;;3.40;;
417;SDS011;49;48.530;9.200;2023-08-06T04:32:11;4.80;;;2.63;;
417;SDS011;49;48.530;9.200;2023-08-06T04:34:40;6.77;;;2.33;;
417;SDS011;49;48.530;9.200;2023-08-06T04:37:07;7.03;;;2.90;;
417;SDS011;49;48.530;9.200;2023-08-06T04:39:36;7.10;;;3.10;;
417;SDS011;49;48.530;9.200;2023-08-06T04:42:03;8.27;;;2.97;;
417;SDS011;49;48.530;9.200;2023-08-06T04:44:33;5.30;;;2.97;;
417;SDS011;49;48.530;9.200;2023-08-06T04:47:00;13.03;;;3.10;;
417;SDS011;49;48.530;9.200;2023-08-06T04:49:28;6.30;;;3.43;;
417;SDS011;49;48.530;9.200;2023-08-06T04:51:55;11.40;;;3.57;;
417;SDS011;49;48.530;9.200;2023-08-06T04:54:22;7.57;;;3.53;;
417;SDS011;49;48.530;9.200;2023-08-06T04:56:49;7.90;;;3.53;;
417;SDS011;49;48.530;9.200;2023-08-06T04:59:16;6.40;;;2.77;;
417;SDS011;49;48.530;9.200;2023-08-06T05:01:45;6.27;;;2.73;;
417;SDS011;49;48.530;9.200;2023-08-06T05:04:11;5.93;;;2.90;;
417;SDS011;49;48.530;9.200;2023-08-06T05:06:39;11.50;;;3.37;;
417;SDS011;49;48.530;9.200;2023-08-06T05:09:06;7.30;;;3.00;;
417;SDS011;49;48.530;9.200;2023-08-06T05:11:33;7.23;;;3.03;;
417;SDS011;49;48.530;9.200;2023-08-06T05:14:00;4.50;;;2.37;;
417;SDS011;49;48.530;9.200;2023-08-06T05:16:28;6.03;;;2.73;;
417;SDS011;49;48.530;9.200;2023-08-06T05:18:56;5.97;;;2.77;;
417;SDS011;49;48.530;9.200;2023-08-06T05:21:24;4.13;;;2.50;;
417;SDS011;49;48.530;9.200;2023-08-06T05:23:51;3.50;;;2.60;;
417;SDS011;49;48.530;9.200;2023-08-06T05:26:18;3.67;;;2.50;;
417;SDS011;49;48.530;9.200;2023-08-06T05:28:45;9.50;;;3.13;;
417;SDS011;49;48.530;9.200;2023-08-06T05:31:12;4.70;;;2.57;;
417;SDS011;49;48.530;9.200;2023-08-06T05:33:39;6.20;;;2.70;;
417;SDS011;49;48.530;9.200;2023-08-06T05:36:08;4.53;;;2.70;;
417;SDS011;49;48.530;9.200;2023-08-06T05:38:35;5.97;;;2.47;;
417;SDS011;49;48.530;9.200;2023-08-06T05:41:02;10.67;;;2.37;;
417;SDS011;49;48.530;9.200;2023-08-06T05:43:29;4.90;;;2.40;;
417;SDS011;49;48.530;9.200;2023-08-06T05:45:56;5.00;;;2.30;;
417;SDS011;49;48.530;9.200;2023-08-06T05:48:24;4.30;;;2.30;;
417;SDS011;49;48.530;9.200;2023-08-06T05:50:53;3.60;;;2.50;;
417;SDS011;49;48.530;9.200;2023-08-06T05:53:21;3.50;;;2.30;;
417;SDS011;49;48.530;9.200;2023-08-06T05:55:48;7.20;;;2.30;;
417;SDS011;49;48.530;9.200;2023-08-06T05:58:16;5.10;;;2.40;;
417;SDS011;49;48.530;9.200;2023-08-06T06:00:46;6.23;;;2.50;;
417;SDS011;49;48.530;9.200;2023-08-06T06:03:13;3.90;;;2.40;;
417;SDS011;49;48.530;9.200;2023-08-06T06:05:42;6.73;;;2.50;;
417;SDS011;49;48.530;9.200;2023-08-06T06:08:09;5.30;;;2.20;;
417;SDS011;49;48.530;9.200;2023-08-06T06:10:48;3.83;;;2.07;;
417;SDS011;49;48.530;9.200;2023-08-06T06:13:22;5.53;;;2.33;;
417;SDS011;49;48.530;9.200;2023-08-06T06:15:50;3.07;;;2.23;;
417;SDS011;49;48.530;9.200;2023-08-06T06:18:21;6.53;;;2.50;;
417;SDS011;49;48.530;9.200;2023-08-06T06:20:52;3.20;;;2.00;;
417;SDS011;49;48.530;9.200;2023-08-06T06:23:29;9.60;;;2.20;;
417;SDS011;49;48.530;9.200;2023-08-06T06:26:21;4.50;;;1.90;;
417;SDS011;49;48.530;9.200;2023-08-06T06:28:51;7.60;;;2.13;;
417;SDS011;49;48.530;9.200;2023-08-06T06:31:22;3.30;;;1.80;;
417;SDS011;49;48.530;9.200;2023-08-06T06:33:49;3.17;;;2.10;;
417;SDS011;49;48.530;9.200;2023-08-06T06:36:18;6.33;;;2.00;;
417;SDS011;49;48.530;9.200;2023-08-06T06:38:45;2.47;;;1.77;;
417;SDS011;49;48.530;9.200;2023-08-06T06:41:14;4.63;;;1.90;;
417;SDS011;49;48.530;9.200;2023-08-06T06:43:41;4.43;;;2.00;;
417;SDS011;49;48.530;9.200;2023-08-06T06:46:09;3.83;;;2.10;;
417;SDS011;49;48.530;9.200;2023-08-06T06:48:36;3.50;;;1.93;;
417;SDS011;49;48.530;9.200;2023-08-06T06:51:04;4.00;;;2.00;;
417;SDS011;49;48.530;9.200;2023-08-06T06:53:34;5.93;;;2.20;;
417;SDS011;49;48.530;9.200;2023-08-06T06:56:04;4.63;;;2.23;;
417;SDS011;49;48.530;9.200;2023-08-06T06:58:33;4.43;;;2.17;;
417;SDS011;49;48.530;9.200;2023-08-06T07:01:03;2.60;;;1.70;;
417;SDS011;49;48.530;9.200;2023-08-06T07:03:32;2.00;;;1.63;;
417;SDS011;49;48.530;9.200;2023-08-06T07:06:00;4.77;;;2.00;;
417;SDS011;49;48.530;9.200;2023-08-06T07:08:28;4.27;;;1.90;;
417;SDS011;49;48.530;9.200;2023-08-06T07:10:59;5.17;;;2.30;;
417;SDS011;49;48.530;9.200;2023-08-06T07:13:30;3.60;;;1.50;;
417;SDS011;49;48.530;9.200;2023-08-06T07:16:03;2.97;;;1.77;;
417;SDS011;49;48.530;9.200;2023-08-06T07:18:31;4.63;;;1.80;;
417;SDS011;49;48.530;9.200;2023-08-06T07:21:06;2.33;;;1.70;;
417;SDS011;49;48.530;9.200;2023-08-06T07:23:36;3.80;;;1.90;;
417;SDS011;49;48.530;9.200;2023-08-06T07:26:03;2.80;;;1.90;;
417;SDS011;49;48.530;9.200;2023-08-06T07:28:34;2.93;;;1.60;;
417;SDS011;49;48.530;9.200;2023-08-06T07:31:03;5.60;;;1.90;;
417;SDS011;49;48.530;9.200;2023-08-06T07:33:30;4.53;;;1.73;;
417;SDS011;49;48.530;9.200;2023-08-06T07:35:57;2.20;;;1.60;;
417;SDS011;49;48.530;9.200;2023-08-06T07:38:24;7.53;;;1.90;;
417;SDS011;49;48.530;9.200;2023-08-06T07:40:53;3.57;;;2.00;;
417;SDS011;49;48.530;9.200;2023-08-06T07:43:20;4.23;;;1.80;;
417;SDS011;49;48.530;9.200;2023-08-06T07:45:47;6.70;;;1.93;;
417;SDS011;49;48.530;9.200;2023-08-06T07:48:15;2.47;;;1.80;;
417;SDS011;49;48.530;9.200;2023-08-06T07:50:42;7.80;;;1.93;;
417;SDS011;49;48.530;9.200;2023-08-06T07:53:15;3.53;;;1.90;;
417;SDS011;49;48.530;9.200;2023-08-06T07:55:47;2.67;;;1.80;;
417;SDS011;49;48.530;9.200;2023-08-06T07:58:16;1.90;;;1.60;;
417;SDS011;49;48.530;9.200;2023-08-06T08:00:46;2.43;;;1.63;;
417;SDS011;49;48.530;9.200;2023-08-06T08:03:13;2.83;;;1.80;;
417;SDS011;49;48.530;9.200;2023-08-06T08:05:43;2.83;;;1.60;;
417;SDS011;49;48.530;9.200;2023-08-06T08:08:12;2.00;;;1.60;;
417;SDS011;49;48.530;9.200;2023-08-06T08:10:39;2.27;;;1.60;;
417;SDS011;49;48.530;9.200;2023-08-06T08:13:07;2.23;;;1.60;;
417;SDS011;49;48.530;9.200;2023-08-06T08:15:34;1.90;;;1.57;;
417;SDS011;49;48.530;9.200;2023-08-06T08:18:01;2.63;;;1.70;;
417;SDS011;49;48.530;9.200;2023-08-06T08:20:30;1.87;;;1.50;;
417;SDS011;49;48.530;9.200;2023-08-06T08:22:58;2.37;;;1.73;;
417;SDS011;49;48.530;9.200;2023-08-06T08:25:26;6.10;;;2.07;;
417;SDS011;49;48.530;9.200;2023-08-06T08:27:54;1.90;;;1.60;;
417;SDS011;49;48.530;9.200;2023-08-06T08:30:21;3.93;;;1.70;;
417;SDS011;49;48.530;9.200;2023-08-06T08:32:50;3.10;;;1.80;;
417;SDS011;49;48.530;9.200;2023-08-06T08:35:17;2.93;;;1.93;;
417;SDS011;49;48.530;9.200;2023-08-06T08:37:45;1.80;;;1.50;;
417;SDS011;49;48.530;9.200;2023-08-06T08:40:13;3.70;;;1.80;;
417;SDS011;49;48.530;9.200;2023-08-06T08:42:40;3.50;;;1.50;;
417;SDS011;49;48.530;9.200;2023-08-06T08:45:11;2.93;;;1.60;;
417;SDS011;49;48.530;9.200;2023-08-06T08:47:40;2.00;;;1.60;;
417;SDS011;49;48.530;9.200;2023-08-06T08:50:08;2.40;;;1.57;;
417;SDS011;49;48.530;9.200;2023-08-06T08:52:36;2.00;;;1.60;;
417;SDS011;49;48.530;9.200;2023-08-06T08:55:07;2.63;;;1.60;;
417;SDS011;49;48.530;9.200;2023-08-06T08:57:35;2.40;;;1.80;;
417;SDS011;49;48.530;9.200;2023-08-06T09:00:02;2.10;;;1.60;;
417;SDS011;49;48.530;9.200;2023-08-06T09:02:30;1.70;;;1.40;;
417;SDS011;49;48.530;9.200;2023-08-06T09:05:00;1.90;;;1.50;;
417;SDS011;49;48.530;9.200;2023-08-06T09:07:30;4.17;;;1.50;;
417;SDS011;49;48.530;9.200;2023-08-06T09:10:01;2.73;;;1.53;;
417;SDS011;49;48.530;9.200;2023-08-06T09:12:34;3.97;;;1.50;;
417;SDS011;49;48.530;9.200;2023-08-06T09:15:01;2.47;;;1.60;;
417;SDS011;49;48.530;9.200;2023-08-06T09:17:30;2.20;;;1.67;;
417;SDS011;49;48.530;9.200;2023-08-06T09:20:08;1.80;;;1.50;;
417;SDS011;49;48.530;9.200;2023-08-06T09:22:37;2.00;;;1.50;;
417;SDS011;49;48.530;9.200;2023-08-06T09:25:04;2.00;;;1.60;;
417;SDS011;49;48.530;9.200;2023-08-06T09:27:36;1.93;;;1.60;;
417;SDS011;49;48.530;9.200;2023-08-06T09:30:04;1.80;;;1.50;;
417;SDS011;49;48.530;9.200;2023-08-06T09:32:47;9.23;;;1.50;;
417;SDS011;49;48.530;9.200;2023-08-06T09:35:16;2.40;;;1.50;;
417;SDS011;49;48.530;9.200;2023-08-06T09:37:43;1.80;;;1.50;;
417;SDS011;49;48.530;9.200;2023-08-06T09:40:27;1.80;;;1.50;;
417;SDS011;49;48.530;9.200;2023-08-06T09:42:57;3.10;;;1.50;;
417;SDS011;49;48.530;9.200;2023-08-06T09:45:28;2.60;;;1.67;;
417;SDS011;49;48.530;9.200;2023-08-06T09:48:02;1.80;;;1.53;;
417;SDS011;49;48.530;9.200;2023-08-06T09:50:30;4.23;;;1.50;;
417;SDS011;49;48.530;9.200;2023-08-06T09:53:01;6.07;;;1.73;;
417;SDS011;49;48.530;9.200;2023-08-06T09:55:29;2.60;;;1.60;;
417;SDS011;49;48.530;9.200;2023-08-06T09:57:58;2.53;;;1.57;;
417;SDS011;49;48.530;9.200;2023-08-06T10:00:25;2.20;;;1.70;;
417;SDS011;49;48.530;9.200;2023-08-06T10:02:54;2.30;;;1.50;;
417;SDS011;49;48.530;9.200;2023-08-06T10:05:25;1.77;;;1.60;;
417;SDS011;49;48.530;9.200;2023-08-06T10:07:53;1.80;;;1.40;;
417;SDS011;49;48.530;9.200;2023-08-06T10:10:21;2.10;;;1.60;;
417;SDS011;49;48.530;9.200;2023-08-06T10:12:55;2.50;;;1.60;;
417;SDS011;49;48.530;9.200;2023-08-06T10:15:26;2.53;;;1.70;;
417;SDS011;49;48.530;9.200;2023-08-06T10:17:56;2.70;;;1.70;;
417;SDS011;49;48.530;9.200;2023-08-06T10:20:25;2.20;;;1.50;;
417;SDS011;49;48.530;9.200;2023-08-06T10:22:59;3.13;;;1.60;;
417;SDS011;49;48.530;9.200;2023-08-06T10:25:31;4.17;;;1.67;;
417;SDS011;49;48.530;9.200;2023-08-06T10:28:08;1.90;;;1.50;;
417;SDS011;49;48.530;9.200;2023-08-06T10:30:41;1.90;;;1.60;;
417;SDS011;49;48.530;9.200;2023-08-06T10:33:09;2.23;;;1.60;;
417;SDS011;49;48.530;9.200;2023-08-06T10:35:37;2.10;;;1.60;;
417;SDS011;49;48.530;9.200;2023-08-06T10:38:11;2.70;;;1.60;;
417;SDS011;49;48.530;9.200;2023-08-06T10:40:40;2.10;;;1.60;;
417;SDS011;49;48.530;9.200;2023-08-06T10:43:11;3.43;;;1.53;;
417;SDS011;49;48.530;9.200;2023-08-06T10:45:55;1.93;;;1.50;;
417;SDS011;49;48.530;9.200;2023-08-06T10:48:29;1.80;;;1.50;;
417;SDS011;49;48.530;9.200;2023-08-06T10:51:03;1.93;;;1.50;;
417;SDS011;49;48.530;9.200;2023-08-06T10:53:33;2.67;;;1.70;;
417;SDS011;49;48.530;9.200;2023-08-06T10:56:01;1.80;;;1.50;;
417;SDS011;49;48.530;9.200;2023-08-06T10:58:33;2.53;;;1.60;;
417;SDS011;49;48.530;9.200;2023-08-06T11:01:00;1.90;;;1.50;;
417;SDS011;49;48.530;9.200;2023-08-06T11:03:28;2.67;;;1.60;;
417;SDS011;49;48.530;9.200;2023-08-06T11:05:57;2.20;;;1.60;;
417;SDS011;49;48.530;9.200;2023-08-06T11:08:24;1.80;;;1.40;;
417;SDS011;49;48.530;9.200;2023-08-06T11:10:55;2.03;;;1.50;;
417;SDS011;49;48.530;9.200;2023-08-06T11:13:37;2.83;;;1.50;;
417;SDS011;49;48.530;9.200;2023-08-06T11:16:04;1.90;;;1.50;;
417;SDS011;49;48.530;9.200;2023-08-06T11:18:32;1.90;;;1.50;;
417;SDS011;49;48.530;9.200;2023-08-06T11:21:00;2.17;;;1.80;;
417;SDS011;49;48.530;9.200;2023-08-06T11:23:30;3.40;;;1.67;;
417;SDS011;49;48.530;9.200;2023-08-06T11:25:58;2.70;;;1.60;;
417;SDS011;49;48.530;9.200;2023-08-06T11:28:25;4.47;;;1.70;;
417;SDS011;49;48.530;9.200;2023-08-06T11:30:54;1.90;;;1.60;;
417;SDS011;49;48.530;9.200;2023-08-06T11:33:29;2.60;;;1.60;;
417;SDS011;49;48.530;9.200;2023-08-06T11:35:57;6.27;;;1.90;;
417;SDS011;49;48.530;9.200;2023-08-06T11:38:27;1.90;;;1.60;;
417;SDS011;49;48.530;9.200;2023-08-06T11:40:55;2.40;;;1.70;;
417;SDS011;49;48.530;9.200;2023-08-06T11:43:25;2.23;;;1.60;;
417;SDS011;49;48.530;9.200;2023-08-06T11:45:59;2.33;;;1.60;;
417;SDS011;49;48.530;9.200;2023-08-06T11:48:30;1.90;;;1.50;;
417;SDS011;49;48.530;9.200;2023-08-06T11:50:57;3.50;;;1.63;;
417;SDS011;49;48.530;9.200;2023-08-06T11:53:27;1.80;;;1.40;;
417;SDS011;49;48.530;9.200;2023-08-06T11:55:55;2.30;;;1.80;;
417;SDS011;49;48.530;9.200;2023-08-06T11:58:26;2.23;;;1.50;;
417;SDS011;49;48.530;9.200;2023-08-06T12:00:53;1.93;;;1.70;;
417;SDS011;49;48.530;9.200;2023-08-06T12:03:23;3.40;;;1.70;;
417;SDS011;49;48.530;9.200;2023-08-06T12:05:53;3.30;;;1.70;;
417;SDS011;49;48.530;9.200;2023-08-06T12:08:20;2.20;;;1.70;;
417;SDS011;49;48.530;9.200;2023-08-06T12:10:52;3.00;;;2.07;;
417;SDS011;49;48.530;9.200;2023-08-06T12:13:19;1.90;;;1.53;;
417;SDS011;49;48.530;9.200;2023-08-06T12:15:46;1.83;;;1.57;;
417;SDS011;49;48.530;9.200;2023-08-06T12:18:13;3.33;;;1.77;;
417;SDS011;49;48.530;9.200;2023-08-06T12:20:43;2.10;;;1.60;;
417;SDS011;49;48.530;9.200;2023-08-06T12:23:10;4.23;;;2.07;;
417;SDS011;49;48.530;9.200;2023-08-06T12:25:40;2.80;;;2.20;;
417;SDS011;49;48.530;9.200;2023-08-06T12:28:10;8.70;;;2.30;;
417;SDS011;49;48.530;9.200;2023-08-06T12:30:38;6.17;;;1.70;;
417;SDS011;49;48.530;9.200;2023-08-06T12:33:08;2.47;;;1.80;;
417;SDS011;49;48.530;9.200;2023-08-06T12:35:35;4.53;;;1.90;;
417;SDS011;49;48.530;9.200;2023-08-06T12:38:05;2.10;;;1.90;;
417;SDS011;49;48.530;9.200;2023-08-06T12:40:32;2.40;;;2.10;;
417;SDS011;49;48.530;9.200;2023-08-06T12:43:02;4.77;;;1.90;;
417;SDS011;49;48.530;9.200;2023-08-06T12:45:29;2.40;;;1.93;;
417;SDS011;49;48.530;9.200;2023-08-06T12:47:56;2.17;;;1.90;;
417;SDS011;49;48.530;9.200;2023-08-06T12:50:23;3.10;;;2.00;;
417;SDS011;49;48.530;9.200;2023-08-06T12:52:53;2.50;;;2.20;;
417;SDS011;49;48.530;9.200;2023-08-06T12:55:22;3.60;;;2.10;;
417;SDS011;49;48.530;9.200;2023-08-06T12:57:54;2.67;;;2.20;;
417;SDS011;49;48.530;9.200;2023-08-06T13:00:29;2.50;;;2.00;;
417;SDS011;49;48.530;9.200;2023-08-06T13:02:59;2.67;;;1.90;;
417;SDS011;49;48.530;9.200;2023-08-06T13:05:36;2.00;;;1.80;;
417;SDS011;49;48.530;9.200;2023-08-06T13:08:10;2.10;;;1.87;;
417;SDS011;49;48.530;9.200;2023-08-06T13:10:41;2.10;;;1.90;;
417;SDS011;49;48.530;9.200;2023-08-06T13:13:18;6.63;;;2.00;;
417;SDS011;49;48.530;9.200;2023-08-06T13:15:50;2.60;;;1.80;;
417;SDS011;49;48.530;9.200;2023-08-06T13:18:22;4.37;;;1.73;;
417;SDS011;49;48.530;9.200;2023-08-06T13:20:52;5.97;;;1.90;;
417;SDS011;49;48.530;9.200;2023-08-06T13:23:24;3.07;;;1.97;;
417;SDS011;49;48.530;9.200;2023-08-06T13:25:53;3.17;;;2.13;;
417;SDS011;49;48.530;9.200;2023-08-06T13:28:26;3.40;;;1.80;;
417;SDS011;49;48.530;9.200;2023-08-06T13:30:53;4.10;;;2.00;;
417;SDS011;49;48.530;9.200;2023-08-06T13:33:23;2.37;;;1.90;;
417;SDS011;49;48.530;9.200;2023-08-06T13:35:53;2.00;;;1.90;;
417;SDS011;49;48.530;9.200;2023-08-06T13:38:23;1.90;;;1.73;;
417;SDS011;49;48.530;9.200;2023-08-06T13:41:02;2.30;;;1.90;;
417;SDS011;49;48.530;9.200;2023-08-06T13:43:40;2.07;;;1.73;;
417;SDS011;49;48.530;9.200;2023-08-06T13:46:13;2.30;;;1.97;;
417;SDS011;49;48.530;9.200;2023-08-06T13:48:45;2.47;;;1.60;;
417;SDS011;49;48.530;9.200;2023-08-06T13:51:15;2.97;;;1.87;;
417;SDS011;49;48.530;9.200;2023-08-06T13:53:48;2.73;;;1.90;;
417;SDS011;49;48.530;9.200;2023-08-06T13:56:21;3.63;;;2.00;;
417;SDS011;49;48.530;9.200;2023-08-06T13:58:54;2.10;;;1.73;;
417;SDS011;49;48.530;9.200;2023-08-06T14:01:21;2.43;;;2.00;;
417;SDS011;49;48.530;9.200;2023-08-06T14:03:49;3.27;;;2.07;;
417;SDS011;49;48.530;9.200;2023-08-06T14:06:16;1.90;;;1.60;;
417;SDS011;49;48.530;9.200;2023-08-06T14:08:45;2.60;;;1.80;;
417;SDS011;49;48.530;9.200;2023-08-06T14:11:22;1.80;;;1.60;;
417;SDS011;49;48.530;9.200;2023-08-06T14:13:49;4.63;;;2.00;;
417;SDS011;49;48.530;9.200;2023-08-06T14:16:19;2.00;;;1.63;;
417;SDS011;49;48.530;9.200;2023-08-06T14:18:46;1.83;;;1.67;;
417;SDS011;49;48.530;9.200;2023-08-06T14:21:17;3.37;;;1.80;;
417;SDS011;49;48.530;9.200;2023-08-06T14:23:47;1.80;;;1.67;;
417;SDS011;49;48.530;9.200;2023-08-06T14:26:22;3.60;;;2.33;;
417;SDS011;49;48.530;9.200;2023-08-06T14:28:50;3.30;;;1.80;;
417;SDS011;49;48.530;9.200;2023-08-06T14:31:24;2.53;;;2.00;;
417;SDS011;49;48.530;9.200;2023-08-06T14:34:19;2.00;;;1.83;;
417;SDS011;49;48.530;9.200;2023-08-06T14:36:52;3.20;;;2.20;;
417;SDS011;49;48.530;9.200;2023-08-06T14:39:19;9.57;;;3.13;;
417;SDS011;49;48.530;9.200;2023-08-06T14:41:48;2.10;;;1.70;;
417;SDS011;49;48.530;9.200;2023-08-06T14:44:15;4.33;;;1.87;;
417;SDS011;49;48.530;9.200;2023-08-06T14:46:43;2.47;;;1.70;;
417;SDS011;49;48.530;9.200;2023-08-06T14:49:13;2.27;;;1.67;;
417;SDS011;49;48.530;9.200;2023-08-06T14:51:41;3.50;;;1.60;;
417;SDS011;49;48.530;9.200;2023-08-06T14:54:08;5.23;;;2.03;;
417;SDS011;49;48.530;9.200;2023-08-06T14:56:35;3.93;;;2.00;;
417;SDS011;49;48.530;9.200;2023-08-06T14:59:06;2.87;;;1.83;;
417;SDS011;49;48.530;9.200;2023-08-06T15:01:34;1.80;;;1.60;;
417;SDS011;49;48.530;9.200;2023-08-06T15:04:01;5.80;;;2.27;;
417;SDS011;49;48.530;9.200;2023-08-06T15:06:36;2.23;;;1.70;;
417;SDS011;49;48.530;9.200;2023-08-06T15:11:50;4.07;;;1.80;;
417;SDS011;49;48.530;9.200;2023-08-06T15:14:19;2.00;;;1.70;;
417;SDS011;49;48.530;9.200;2023-08-06T15:16:46;1.80;;;1.70;;
417;SDS011;49;48.530;9.200;2023-08-06T15:19:15;1.93;;;1.67;;
417;SDS011;49;48.530;9.200;2023-08-06T15:21:52;2.67;;;1.60;;
417;SDS011;49;48.530;9.200;2023-08-06T15:24:39;2.50;;;1.90;;
417;SDS011;49;48.530;9.200;2023-08-06T15:27:12;1.80;;;1.60;;
417;SDS011;49;48.530;9.200;2023-08-06T15:29:56;2.00;;;1.80;;
417;SDS011;49;48.530;9.200;2023-08-06T15:32:23;3.27;;;1.80;;
417;SDS011;49;48.530;9.200;2023-08-06T15:34:52;2.57;;;1.80;;
417;SDS011;49;48.530;9.200;2023-08-06T15:37:23;2.50;;;1.80;;
417;SDS011;49;48.530;9.200;2023-08-06T15:39:57;2.20;;;1.83;;
417;SDS011;49;48.530;9.200;2023-08-06T15:42:35;4.23;;;2.10;;
417;SDS011;49;48.530;9.200;2023-08-06T15:45:25;4.30;;;2.00;;
417;SDS011;49;48.530;9.200;2023-08-06T15:47:53;2.73;;;2.10;;
417;SDS011;49;48.530;9.200;2023-08-06T15:50:21;2.23;;;1.93;;
417;SDS011;49;48.530;9.200;2023-08-06T15:52:49;2.33;;;2.03;;
417;SDS011;49;48.530;9.200;2023-08-06T15:55:28;3.60;;;2.00;;
417;SDS011;49;48.530;9.200;2023-08-06T15:58:05;4.00;;;2.87;;
417;SDS011;49;48.530;9.200;2023-08-06T16:00:38;4.53;;;1.97;;
417;SDS011;49;48.530;9.200;2023-08-06T16:03:07;4.17;;;2.83;;
417;SDS011;49;48.530;9.200;2023-08-06T16:05:34;2.53;;;2.23;;
417;SDS011;49;48.530;9.200;2023-08-06T16:08:13;3.47;;;2.07;;
417;SDS011;49;48.530;9.200;2023-08-06T16:10:43;2.93;;;2.10;;
417;SDS011;49;48.530;9.200;2023-08-06T16:13:15;3.77;;;2.00;;
417;SDS011;49;48.530;9.200;2023-08-06T16:15:48;2.93;;;2.17;;
417;SDS011;49;48.530;9.200;2023-08-06T16:18:17;3.40;;;2.17;;